sensor_id;sensor_type;location;lat;lon;timestamp;temperature;humidity
13409;DHT22;6775;49.574;11.170;2023-03-23T00:01:57;9.80;99.90
13409;DHT22;6775;49.574;11.170;2023-03-23T00:04:24;9.80;99.90
13409;DHT22;6775;49.574;11.170;2023-03-23T00:06:53;9.80;99.90
13409;DHT22;6775;49.574;11.170;2023-03-23T00:09:20;9.70;99.90
13409;DHT22;6775;49.574;11.170;2023-03-23T00:11:49;9.70;99.90
13409;DHT22;6775;49.574;11.170;2023-03-23T00:14:17;9.70;99.90
13409;DHT22;6775;49.574;11.170;2023-03-23T00:16:48;9.50;99.90
13409;DHT22;6775;49.574;11.170;2023-03-23T00:19:16;9.50;99.90
13409;DHT22;6775;49.574;11.170;2023-03-23T00:21:44;9.50;99.90
13409;DHT22;6775;49.574;11.170;2023-03-23T00:24:14;9.50;99.90
13409;DHT22;6775;49.574;11.170;2023-03-23T00:26:44;9.50;99.90
13409;DHT22;6775;49.574;11.170;2023-03-23T00:29:14;9.60;99.90
13409;DHT22;6775;49.574;11.170;2023-03-23T00:31:41;9.60;99.90
13409;DHT22;6775;49.574;11.170;2023-03-23T00:34:12;9.60;99.90
13409;DHT22;6775;49.574;11.170;2023-03-23T00:36:46;9.70;99.90
13409;DHT22;6775;49.574;11.170;2023-03-23T00:39:14;9.70;99.90
13409;DHT22;6775;49.574;11.170;2023-03-23T00:41:43;9.70;99.90
13409;DHT22;6775;49.574;11.170;2023-03-23T00:44:11;9.90;99.90
13409;DHT22;6775;49.574;11.170;2023-03-23T00:46:42;10.00;99.90
13409;DHT22;6775;49.574;11.170;2023-03-23T00:49:11;10.30;99.90
13409;DHT22;6775;49.574;11.170;2023-03-23T00:51:39;10.50;99.90
13409;DHT22;6775;49.574;11.170;2023-03-23T00:54:06;10.70;99.90
13409;DHT22;6775;49.574;11.170;2023-03-23T00:56:35;10.80;99.90
13409;DHT22;6775;49.574;11.170;2023-03-23T00:59:02;11.00;99.90
13409;DHT22;6775;49.574;11.170;2023-03-23T01:01:30;11.10;99.90
13409;DHT22;6775;49.574;11.170;2023-03-23T01:03:57;11.20;99.90
13409;DHT22;6775;49.574;11.170;2023-03-23T01:06:30;11.30;99.90
13409;DHT22;6775;49.574;11.170;2023-03-23T01:08:57;11.30;99.90
13409;DHT22;6775;49.574;11.170;2023-03-23T01:11:25;11.30;99.90
13409;DHT22;6775;49.574;11.170;2023-03-23T01:13:53;11.40;99.90
13409;DHT22;6775;49.574;11.170;2023-03-23T01:16:21;11.30;99.90
13409;DHT22;6775;49.574;11.170;2023-03-23T01:18:48;11.30;99.90
13409;DHT22;6775;49.574;11.170;2023-03-23T01:21:16;11.30;99.90
13409;DHT22;6775;49.574;11.170;2023-03-23T01:23:43;11.20;99.90
13409;DHT22;6775;49.574;11.170;2023-03-23T01:26:11;11.30;99.90
13409;DHT22;6775;49.574;11.170;2023-03-23T01:28:38;11.20;99.90
13409;DHT22;6775;49.574;11.170;2023-03-23T01:31:08;11.30;99.90
13409;DHT22;6775;49.574;11.170;2023-03-23T01:33:38;11.20;99.90
13409;DHT22;6775;49.574;11.170;2023-03-23T01:36:07;11.20;99.90
13409;DHT22;6775;49.574;11.170;2023-03-23T01:38:35;11.20;99.90
13409;DHT22;6775;49.574;11.170;2023-03-23T01:41:02;11.20;99.90
13409;DHT22;6775;49.574;11.170;2023-03-23T01:43:29;11.20;99.90
13409;DHT22;6775;49.574;11.170;2023-03-23T01:45:57;11.20;99.90
13409;DHT22;6775;49.574;11.170;2023-03-23T01:48:27;11.20;99.90
13409;DHT22;6775;49.574;11.170;2023-03-23T01:50:58;11.20;99.90
13409;DHT22;6775;49.574;11.170;2023-03-23T01:53:28;11.20;99.90
13409;DHT22;6775;49.574;11.170;2023-03-23T01:55:57;11.20;99.90
13409;DHT22;6775;49.574;11.170;2023-03-23T01:58:27;11.20;99.90
13409;DHT22;6775;49.574;11.170;2023-03-23T02:00:55;11.20;99.90
13409;DHT22;6775;49.574;11.170;2023-03-23T02:03:26;11.20;99.90
13409;DHT22;6775;49.574;11.170;2023-03-23T02:05:54;11.20;99.90
13409;DHT22;6775;49.574;11.170;2023-03-23T02:08:24;11.20;99.90
13409;DHT22;6775;49.574;11.170;2023-03-23T02:10:53;11.20;99.90
13409;DHT22;6775;49.574;11.170;2023-03-23T02:13:20;11.20;99.90
13409;DHT22;6775;49.574;11.170;2023-03-23T02:15:54;11.20;99.90
13409;DHT22;6775;49.574;11.170;2023-03-23T02:18:35;11.20;99.90
13409;DHT22;6775;49.574;11.170;2023-03-23T02:21:25;11.20;99.90
13409;DHT22;6775;49.574;11.170;2023-03-23T02:24:23;11.20;99.90
13409;DHT22;6775;49.574;11.170;2023-03-23T02:26:59;11.20;99.90
13409;DHT22;6775;49.574;11.170;2023-03-23T02:35:19;11.30;99.90
13409;DHT22;6775;49.574;11.170;2023-03-23T02:37:49;11.40;99.90
13409;DHT22;6775;49.574;11.170;2023-03-23T02:40:18;11.40;99.90
13409;DHT22;6775;49.574;11.170;2023-03-23T02:42:49;11.50;99.90
13409;DHT22;6775;49.574;11.170;2023-03-23T02:45:19;11.40;99.90
13409;DHT22;6775;49.574;11.170;2023-03-23T02:47:48;11.50;99.90
13409;DHT22;6775;49.574;11.170;2023-03-23T02:50:20;11.50;99.90
13409;DHT22;6775;49.574;11.170;2023-03-23T02:52:50;11.50;99.90
13409;DHT22;6775;49.574;11.170;2023-03-23T02:55:19;11.50;99.90
13409;DHT22;6775;49.574;11.170;2023-03-23T02:57:50;11.50;99.90
13409;DHT22;6775;49.574;11.170;2023-03-23T03:00:18;11.60;99.90
13409;DHT22;6775;49.574;11.170;2023-03-23T03:02:46;11.60;99.90
13409;DHT22;6775;49.574;11.170;2023-03-23T03:05:29;11.60;99.90
13409;DHT22;6775;49.574;11.170;2023-03-23T03:08:11;11.60;99.90
13409;DHT22;6775;49.574;11.170;2023-03-23T03:10:48;11.70;99.90
13409;DHT22;6775;49.574;11.170;2023-03-23T03:13:23;11.70;99.90
13409;DHT22;6775;49.574;11.170;2023-03-23T03:15:54;11.70;99.90
13409;DHT22;6775;49.574;11.170;2023-03-23T03:18:25;11.70;99.90
13409;DHT22;6775;49.574;11.170;2023-03-23T03:21:00;11.70;99.90
13409;DHT22;6775;49.574;11.170;2023-03-23T03:23:27;11.70;99.90
13409;DHT22;6775;49.574;11.170;2023-03-23T03:25:56;11.80;99.90
13409;DHT22;6775;49.574;11.170;2023-03-23T03:28:24;11.80;99.90
13409;DHT22;6775;49.574;11.170;2023-03-23T03:30:54;11.80;99.90
13409;DHT22;6775;49.574;11.170;2023-03-23T03:33:22;11.80;99.90
13409;DHT22;6775;49.574;11.170;2023-03-23T03:35:51;11.90;99.90
13409;DHT22;6775;49.574;11.170;2023-03-23T03:38:20;11.80;99.90
13409;DHT22;6775;49.574;11.170;2023-03-23T03:40:47;11.90;99.90
13409;DHT22;6775;49.574;11.170;2023-03-23T03:43:14;11.90;99.90
13409;DHT22;6775;49.574;11.170;2023-03-23T03:45:41;11.90;99.90
13409;DHT22;6775;49.574;11.170;2023-03-23T03:48:08;11.90;99.90
13409;DHT22;6775;49.574;11.170;2023-03-23T03:50:35;11.90;99.90
13409;DHT22;6775;49.574;11.170;2023-03-23T03:53:02;11.90;99.90
13409;DHT22;6775;49.574;11.170;2023-03-23T03:55:31;11.90;99.90
13409;DHT22;6775;49.574;11.170;2023-03-23T03:58:02;11.90;99.90
13409;DHT22;6775;49.574;11.170;2023-03-23T04:00:30;11.90;99.90
13409;DHT22;6775;49.574;11.170;2023-03-23T04:02:56;11.90;99.90
13409;DHT22;6775;49.574;11.170;2023-03-23T04:05:25;11.90;99.90
13409;DHT22;6775;49.574;11.170;2023-03-23T04:07:54;11.90;99.90
13409;DHT22;6775;49.574;11.170;2023-03-23T04:10:27;11.90;99.90
13409;DHT22;6775;49.574;11.170;2023-03-23T04:12:56;11.90;99.90
13409;DHT22;6775;49.574;11.170;2023-03-23T04:15:23;11.90;99.90
13409;DHT22;6775;49.574;11.170;2023-03-23T04:17:50;11.90;99.90
13409;DHT22;6775;49.574;11.170;2023-03-23T04:20:17;11.90;99.90
13409;DHT22;6775;49.574;11.170;2023-03-23T04:22:45;11.90;99.90
13409;DHT22;6775;49.574;11.170;2023-03-23T04:25:16;12.00;99.90
13409;DHT22;6775;49.574;11.170;2023-03-23T04:27:46;11.90;99.90
13409;DHT22;6775;49.574;11.170;2023-03-23T04:30:21;11.90;99.90
13409;DHT22;6775;49.574;11.170;2023-03-23T04:32:48;11.90;99.90
13409;DHT22;6775;49.574;11.170;2023-03-23T04:35:19;11.90;99.90
13409;DHT22;6775;49.574;11.170;2023-03-23T04:37:46;11.90;99.90
13409;DHT22;6775;49.574;11.170;2023-03-23T04:40:14;11.90;99.90
13409;DHT22;6775;49.574;11.170;2023-03-23T04:42:42;12.00;99.90
13409;DHT22;6775;49.574;11.170;2023-03-23T04:45:13;12.00;99.90
13409;DHT22;6775;49.574;11.170;2023-03-23T04:47:42;12.00;99.90
13409;DHT22;6775;49.574;11.170;2023-03-23T04:50:19;12.00;99.90
13409;DHT22;6775;49.574;11.170;2023-03-23T04:52:47;11.90;99.90
13409;DHT22;6775;49.574;11.170;2023-03-23T04:55:14;12.00;99.90
13409;DHT22;6775;49.574;11.170;2023-03-23T04:57:41;12.00;99.90
13409;DHT22;6775;49.574;11.170;2023-03-23T05:00:09;11.90;99.90
13409;DHT22;6775;49.574;11.170;2023-03-23T05:02:43;12.00;99.90
13409;DHT22;6775;49.574;11.170;2023-03-23T05:05:12;12.00;99.90
13409;DHT22;6775;49.574;11.170;2023-03-23T05:07:39;12.00;99.90
13409;DHT22;6775;49.574;11.170;2023-03-23T05:10:08;12.00;99.90
13409;DHT22;6775;49.574;11.170;2023-03-23T05:12:35;12.00;99.90
13409;DHT22;6775;49.574;11.170;2023-03-23T05:15:02;12.00;99.90
13409;DHT22;6775;49.574;11.170;2023-03-23T05:17:29;11.90;99.90
13409;DHT22;6775;49.574;11.170;2023-03-23T05:19:59;11.90;99.90
13409;DHT22;6775;49.574;11.170;2023-03-23T05:22:26;11.90;99.90
13409;DHT22;6775;49.574;11.170;2023-03-23T05:24:53;11.90;99.90
13409;DHT22;6775;49.574;11.170;2023-03-23T05:27:20;11.90;99.90
13409;DHT22;6775;49.574;11.170;2023-03-23T05:29:47;11.90;99.90
13409;DHT22;6775;49.574;11.170;2023-03-23T05:32:15;12.00;99.90
13409;DHT22;6775;49.574;11.170;2023-03-23T05:34:42;12.00;99.90
13409;DHT22;6775;49.574;11.170;2023-03-23T05:37:10;12.00;99.90
13409;DHT22;6775;49.574;11.170;2023-03-23T05:39:39;12.10;99.90
13409;DHT22;6775;49.574;11.170;2023-03-23T05:42:06;12.10;99.90
13409;DHT22;6775;49.574;11.170;2023-03-23T05:44:34;12.10;99.90
13409;DHT22;6775;49.574;11.170;2023-03-23T05:47:01;12.10;99.90
13409;DHT22;6775;49.574;11.170;2023-03-23T05:49:28;12.10;99.90
13409;DHT22;6775;49.574;11.170;2023-03-23T05:51:55;12.20;99.90
13409;DHT22;6775;49.574;11.170;2023-03-23T05:54:23;12.20;99.90
13409;DHT22;6775;49.574;11.170;2023-03-23T05:56:51;12.20;99.90
13409;DHT22;6775;49.574;11.170;2023-03-23T05:59:18;12.30;99.90
13409;DHT22;6775;49.574;11.170;2023-03-23T06:01:44;12.20;99.90
13409;DHT22;6775;49.574;11.170;2023-03-23T06:04:11;12.30;99.90
13409;DHT22;6775;49.574;11.170;2023-03-23T06:06:39;12.30;99.90
13409;DHT22;6775;49.574;11.170;2023-03-23T06:09:07;12.30;99.90
13409;DHT22;6775;49.574;11.170;2023-03-23T06:11:36;12.30;99.90
13409;DHT22;6775;49.574;11.170;2023-03-23T06:14:03;12.30;99.90
13409;DHT22;6775;49.574;11.170;2023-03-23T06:16:30;12.40;99.90
13409;DHT22;6775;49.574;11.170;2023-03-23T06:18:58;12.40;99.90
13409;DHT22;6775;49.574;11.170;2023-03-23T06:21:26;12.50;99.90
13409;DHT22;6775;49.574;11.170;2023-03-23T06:23:53;12.50;99.90
13409;DHT22;6775;49.574;11.170;2023-03-23T06:26:24;12.60;99.90
13409;DHT22;6775;49.574;11.170;2023-03-23T06:28:53;12.60;99.90
13409;DHT22;6775;49.574;11.170;2023-03-23T06:31:20;12.70;99.90
13409;DHT22;6775;49.574;11.170;2023-03-23T06:33:47;12.70;99.90
13409;DHT22;6775;49.574;11.170;2023-03-23T06:36:14;12.70;99.90
13409;DHT22;6775;49.574;11.170;2023-03-23T06:38:42;12.70;99.90
13409;DHT22;6775;49.574;11.170;2023-03-23T06:41:08;12.80;99.90
13409;DHT22;6775;49.574;11.170;2023-03-23T06:43:35;12.80;99.90
13409;DHT22;6775;49.574;11.170;2023-03-23T06:46:06;12.80;99.90
13409;DHT22;6775;49.574;11.170;2023-03-23T06:48:33;12.80;99.90
13409;DHT22;6775;49.574;11.170;2023-03-23T06:51:00;12.80;99.90
13409;DHT22;6775;49.574;11.170;2023-03-23T06:53:27;12.80;99.90
13409;DHT22;6775;49.574;11.170;2023-03-23T06:55:54;12.90;99.90
13409;DHT22;6775;49.574;11.170;2023-03-23T06:58:21;12.90;99.90
13409;DHT22;6775;49.574;11.170;2023-03-23T07:00:53;12.90;99.90
13409;DHT22;6775;49.574;11.170;2023-03-23T07:03:23;13.00;99.90
13409;DHT22;6775;49.574;11.170;2023-03-23T07:05:49;13.00;99.90
13409;DHT22;6775;49.574;11.170;2023-03-23T07:08:16;13.10;99.90
13409;DHT22;6775;49.574;11.170;2023-03-23T07:10:43;13.20;99.90
13409;DHT22;6775;49.574;11.170;2023-03-23T07:13:10;13.30;99.90
13409;DHT22;6775;49.574;11.170;2023-03-23T07:15:37;13.30;99.90
13409;DHT22;6775;49.574;11.170;2023-03-23T07:18:04;13.40;99.90
13409;DHT22;6775;49.574;11.170;2023-03-23T07:20:32;13.40;99.90
13409;DHT22;6775;49.574;11.170;2023-03-23T07:22:59;13.40;99.90
13409;DHT22;6775;49.574;11.170;2023-03-23T07:25:27;13.50;99.90
13409;DHT22;6775;49.574;11.170;2023-03-23T07:27:54;13.50;99.90
13409;DHT22;6775;49.574;11.170;2023-03-23T07:30:21;13.50;99.90
13409;DHT22;6775;49.574;11.170;2023-03-23T07:32:48;13.50;99.90
13409;DHT22;6775;49.574;11.170;2023-03-23T07:35:14;13.40;99.90
13409;DHT22;6775;49.574;11.170;2023-03-23T07:37:43;13.40;99.90
13409;DHT22;6775;49.574;11.170;2023-03-23T07:40:11;13.40;99.90
13409;DHT22;6775;49.574;11.170;2023-03-23T07:42:41;13.40;99.90
13409;DHT22;6775;49.574;11.170;2023-03-23T07:45:10;13.40;99.90
13409;DHT22;6775;49.574;11.170;2023-03-23T07:47:37;13.40;99.90
13409;DHT22;6775;49.574;11.170;2023-03-23T07:50:06;13.40;99.90
13409;DHT22;6775;49.574;11.170;2023-03-23T07:52:33;13.40;99.90
13409;DHT22;6775;49.574;11.170;2023-03-23T07:55:01;13.50;99.90
13409;DHT22;6775;49.574;11.170;2023-03-23T07:57:29;13.50;99.90
13409;DHT22;6775;49.574;11.170;2023-03-23T07:59:57;13.60;99.90
13409;DHT22;6775;49.574;11.170;2023-03-23T08:02:25;13.60;99.90
13409;DHT22;6775;49.574;11.170;2023-03-23T08:04:53;13.70;99.90
13409;DHT22;6775;49.574;11.170;2023-03-23T08:07:22;13.70;99.90
13409;DHT22;6775;49.574;11.170;2023-03-23T08:09:49;13.70;99.90
13409;DHT22;6775;49.574;11.170;2023-03-23T08:12:17;13.80;99.90
13409;DHT22;6775;49.574;11.170;2023-03-23T08:14:44;13.80;99.90
13409;DHT22;6775;49.574;11.170;2023-03-23T08:17:10;13.70;99.90
13409;DHT22;6775;49.574;11.170;2023-03-23T08:19:37;13.70;99.90
13409;DHT22;6775;49.574;11.170;2023-03-23T08:22:04;13.60;99.90
13409;DHT22;6775;49.574;11.170;2023-03-23T08:24:31;13.60;99.90
13409;DHT22;6775;49.574;11.170;2023-03-23T08:26:59;13.50;99.90
13409;DHT22;6775;49.574;11.170;2023-03-23T08:29:27;13.30;99.90
13409;DHT22;6775;49.574;11.170;2023-03-23T08:31:54;13.40;99.90
13409;DHT22;6775;49.574;11.170;2023-03-23T08:34:21;13.30;99.90
13409;DHT22;6775;49.574;11.170;2023-03-23T08:36:48;13.30;99.90
13409;DHT22;6775;49.574;11.170;2023-03-23T08:39:17;13.30;99.90
13409;DHT22;6775;49.574;11.170;2023-03-23T08:41:44;13.20;99.90
13409;DHT22;6775;49.574;11.170;2023-03-23T08:44:11;13.20;99.90
13409;DHT22;6775;49.574;11.170;2023-03-23T08:46:40;13.20;99.90
13409;DHT22;6775;49.574;11.170;2023-03-23T08:49:07;13.20;99.90
13409;DHT22;6775;49.574;11.170;2023-03-23T08:51:34;13.20;99.90
13409;DHT22;6775;49.574;11.170;2023-03-23T08:54:01;13.30;99.90
13409;DHT22;6775;49.574;11.170;2023-03-23T08:56:28;13.30;99.90
13409;DHT22;6775;49.574;11.170;2023-03-23T08:58:55;13.30;99.90
13409;DHT22;6775;49.574;11.170;2023-03-23T09:01:21;13.30;99.90
13409;DHT22;6775;49.574;11.170;2023-03-23T09:03:50;13.30;99.90
13409;DHT22;6775;49.574;11.170;2023-03-23T09:06:17;13.30;99.90
13409;DHT22;6775;49.574;11.170;2023-03-23T09:08:44;13.30;99.90
13409;DHT22;6775;49.574;11.170;2023-03-23T09:11:11;13.30;99.90
13409;DHT22;6775;49.574;11.170;2023-03-23T09:13:39;13.30;99.90
13409;DHT22;6775;49.574;11.170;2023-03-23T09:16:07;13.30;99.90
13409;DHT22;6775;49.574;11.170;2023-03-23T09:18:34;13.30;99.90
13409;DHT22;6775;49.574;11.170;2023-03-23T09:21:03;13.40;99.90
13409;DHT22;6775;49.574;11.170;2023-03-23T09:23:31;13.40;99.90
13409;DHT22;6775;49.574;11.170;2023-03-23T09:25:59;13.60;99.90
13409;DHT22;6775;49.574;11.170;2023-03-23T09:28:26;13.60;99.90
13409;DHT22;6775;49.574;11.170;2023-03-23T09:30:55;13.60;99.90
13409;DHT22;6775;49.574;11.170;2023-03-23T09:33:23;13.70;99.90
13409;DHT22;6775;49.574;11.170;2023-03-23T09:35:51;13.70;99.90
13409;DHT22;6775;49.574;11.170;2023-03-23T09:38:20;13.80;99.90
13409;DHT22;6775;49.574;11.170;2023-03-23T09:40:48;13.90;99.90
13409;DHT22;6775;49.574;11.170;2023-03-23T09:46:30;14.00;99.90
13409;DHT22;6775;49.574;11.170;2023-03-23T09:49:05;14.00;99.90
13409;DHT22;6775;49.574;11.170;2023-03-23T09:51:41;14.10;99.90
13409;DHT22;6775;49.574;11.170;2023-03-23T09:54:15;14.10;99.90
13409;DHT22;6775;49.574;11.170;2023-03-23T09:56:44;14.20;99.90
13409;DHT22;6775;49.574;11.170;2023-03-23T09:59:16;14.30;99.90
13409;DHT22;6775;49.574;11.170;2023-03-23T10:01:47;14.40;99.90
13409;DHT22;6775;49.574;11.170;2023-03-23T10:04:24;14.60;99.90
13409;DHT22;6775;49.574;11.170;2023-03-23T10:06:57;14.60;99.90
13409;DHT22;6775;49.574;11.170;2023-03-23T10:09:26;14.70;99.90
13409;DHT22;6775;49.574;11.170;2023-03-23T10:12:00;14.70;99.90
13409;DHT22;6775;49.574;11.170;2023-03-23T10:14:37;14.80;99.90
13409;DHT22;6775;49.574;11.170;2023-03-23T10:17:13;14.80;99.90
13409;DHT22;6775;49.574;11.170;2023-03-23T10:19:47;14.80;99.90
13409;DHT22;6775;49.574;11.170;2023-03-23T10:22:17;14.90;99.90
13409;DHT22;6775;49.574;11.170;2023-03-23T10:24:50;14.90;99.90
13409;DHT22;6775;49.574;11.170;2023-03-23T10:27:22;15.00;99.90
13409;DHT22;6775;49.574;11.170;2023-03-23T10:29:55;14.90;99.90
13409;DHT22;6775;49.574;11.170;2023-03-23T10:32:39;15.00;99.90
13409;DHT22;6775;49.574;11.170;2023-03-23T10:35:11;14.90;99.90
13409;DHT22;6775;49.574;11.170;2023-03-23T10:37:42;14.90;99.90
13409;DHT22;6775;49.574;11.170;2023-03-23T10:40:15;14.90;99.90
13409;DHT22;6775;49.574;11.170;2023-03-23T10:42:43;14.80;99.90
13409;DHT22;6775;49.574;11.170;2023-03-23T10:45:17;14.70;99.90
13409;DHT22;6775;49.574;11.170;2023-03-23T10:47:49;14.70;99.90
13409;DHT22;6775;49.574;11.170;2023-03-23T10:50:22;14.60;99.90
13409;DHT22;6775;49.574;11.170;2023-03-23T10:52:50;14.60;99.90
13409;DHT22;6775;49.574;11.170;2023-03-23T10:55:21;14.50;99.90
13409;DHT22;6775;49.574;11.170;2023-03-23T10:57:59;14.50;99.90
13409;DHT22;6775;49.574;11.170;2023-03-23T11:00:28;14.50;99.90
13409;DHT22;6775;49.574;11.170;2023-03-23T11:03:01;14.50;99.90
13409;DHT22;6775;49.574;11.170;2023-03-23T11:05:35;14.50;99.90
13409;DHT22;6775;49.574;11.170;2023-03-23T11:08:04;14.50;99.90
13409;DHT22;6775;49.574;11.170;2023-03-23T11:10:41;14.50;99.90
13409;DHT22;6775;49.574;11.170;2023-03-23T11:13:13;14.60;99.90
13409;DHT22;6775;49.574;11.170;2023-03-23T11:15:41;14.60;99.90
13409;DHT22;6775;49.574;11.170;2023-03-23T11:18:12;14.60;99.90
13409;DHT22;6775;49.574;11.170;2023-03-23T11:20:41;14.60;99.90
13409;DHT22;6775;49.574;11.170;2023-03-23T11:23:19;14.60;99.90
13409;DHT22;6775;49.574;11.170;2023-03-23T11:25:56;14.60;99.90
13409;DHT22;6775;49.574;11.170;2023-03-23T11:28:45;14.60;99.90
13409;DHT22;6775;49.574;11.170;2023-03-23T11:31:13;14.60;99.90
13409;DHT22;6775;49.574;11.170;2023-03-23T11:33:54;14.60;99.90
13409;DHT22;6775;49.574;11.170;2023-03-23T11:36:33;14.60;99.90
13409;DHT22;6775;49.574;11.170;2023-03-23T11:39:01;14.60;99.90
13409;DHT22;6775;49.574;11.170;2023-03-23T11:41:34;14.60;99.90
13409;DHT22;6775;49.574;11.170;2023-03-23T11:44:09;14.50;99.90
13409;DHT22;6775;49.574;11.170;2023-03-23T11:46:42;14.50;99.90
13409;DHT22;6775;49.574;11.170;2023-03-23T11:49:15;14.50;99.90
13409;DHT22;6775;49.574;11.170;2023-03-23T11:51:47;14.40;99.90
13409;DHT22;6775;49.574;11.170;2023-03-23T11:54:20;14.40;99.90
13409;DHT22;6775;49.574;11.170;2023-03-23T11:56:50;14.40;99.90
13409;DHT22;6775;49.574;11.170;2023-03-23T11:59:26;14.50;99.90
13409;DHT22;6775;49.574;11.170;2023-03-23T12:01:56;14.50;99.90
13409;DHT22;6775;49.574;11.170;2023-03-23T12:04:43;14.50;99.90
13409;DHT22;6775;49.574;11.170;2023-03-23T12:07:30;14.50;99.90
13409;DHT22;6775;49.574;11.170;2023-03-23T12:10:05;14.50;99.90
13409;DHT22;6775;49.574;11.170;2023-03-23T12:12:42;14.60;99.90
13409;DHT22;6775;49.574;11.170;2023-03-23T12:15:19;14.60;99.90
13409;DHT22;6775;49.574;11.170;2023-03-23T12:17:56;14.70;99.90
13409;DHT22;6775;49.574;11.170;2023-03-23T12:20:32;14.70;99.90
13409;DHT22;6775;49.574;11.170;2023-03-23T12:23:13;14.80;99.90
13409;DHT22;6775;49.574;11.170;2023-03-23T12:29:02;14.80;99.90
13409;DHT22;6775;49.574;11.170;2023-03-23T12:31:38;14.80;99.90
13409;DHT22;6775;49.574;11.170;2023-03-23T12:34:10;14.90;99.90
13409;DHT22;6775;49.574;11.170;2023-03-23T12:36:59;14.90;99.90
13409;DHT22;6775;49.574;11.170;2023-03-23T12:39:50;14.90;99.90
13409;DHT22;6775;49.574;11.170;2023-03-23T12:42:26;15.00;99.90
13409;DHT22;6775;49.574;11.170;2023-03-23T12:45:01;15.00;99.90
13409;DHT22;6775;49.574;11.170;2023-03-23T12:47:36;15.00;99.90
13409;DHT22;6775;49.574;11.170;2023-03-23T12:50:09;15.10;99.90
13409;DHT22;6775;49.574;11.170;2023-03-23T12:52:44;15.10;99.90
13409;DHT22;6775;49.574;11.170;2023-03-23T12:55:17;15.10;99.90
13409;DHT22;6775;49.574;11.170;2023-03-23T12:57:48;15.10;99.90
13409;DHT22;6775;49.574;11.170;2023-03-23T13:00:23;15.20;99.90
13409;DHT22;6775;49.574;11.170;2023-03-23T13:02:56;15.30;99.90
13409;DHT22;6775;49.574;11.170;2023-03-23T13:05:42;15.30;99.90
13409;DHT22;6775;49.574;11.170;2023-03-23T13:08:14;15.40;99.90
13409;DHT22;6775;49.574;11.170;2023-03-23T13:10:45;15.50;99.90
13409;DHT22;6775;49.574;11.170;2023-03-23T13:13:17;15.60;99.90
13409;DHT22;6775;49.574;11.170;2023-03-23T13:15:53;15.60;99.90
13409;DHT22;6775;49.574;11.170;2023-03-23T13:18:28;15.50;99.90
13409;DHT22;6775;49.574;11.170;2023-03-23T13:21:07;15.50;99.90
13409;DHT22;6775;49.574;11.170;2023-03-23T13:23:37;15.60;99.90
13409;DHT22;6775;49.574;11.170;2023-03-23T13:26:07;15.50;99.90
13409;DHT22;6775;49.574;11.170;2023-03-23T13:28:50;15.40;99.90
13409;DHT22;6775;49.574;11.170;2023-03-23T13:31:22;15.50;99.90
13409;DHT22;6775;49.574;11.170;2023-03-23T13:33:58;15.40;99.90
13409;DHT22;6775;49.574;11.170;2023-03-23T13:36:29;15.50;99.90
13409;DHT22;6775;49.574;11.170;2023-03-23T13:38:58;15.60;99.90
13409;DHT22;6775;49.574;11.170;2023-03-23T13:41:26;15.70;99.90
13409;DHT22;6775;49.574;11.170;2023-03-23T13:44:05;15.80;99.90
13409;DHT22;6775;49.574;11.170;2023-03-23T13:46:42;15.90;99.90
13409;DHT22;6775;49.574;11.170;2023-03-23T13:49:21;16.10;99.90
13409;DHT22;6775;49.574;11.170;2023-03-23T13:51:58;16.20;99.90
13409;DHT22;6775;49.574;11.170;2023-03-23T13:54:31;16.40;99.90
13409;DHT22;6775;49.574;11.170;2023-03-23T13:57:00;16.60;99.90
13409;DHT22;6775;49.574;11.170;2023-03-23T13:59:34;16.80;99.90
13409;DHT22;6775;49.574;11.170;2023-03-23T14:02:34;16.80;99.90
13409;DHT22;6775;49.574;11.170;2023-03-23T14:05:19;16.80;99.90
13409;DHT22;6775;49.574;11.170;2023-03-23T14:07:56;16.80;99.90
13409;DHT22;6775;49.574;11.170;2023-03-23T14:10:30;16.80;99.90
13409;DHT22;6775;49.574;11.170;2023-03-23T14:13:00;16.70;99.90
13409;DHT22;6775;49.574;11.170;2023-03-23T14:15:29;16.60;99.90
13409;DHT22;6775;49.574;11.170;2023-03-23T14:18:01;16.60;99.90
13409;DHT22;6775;49.574;11.170;2023-03-23T14:20:32;16.50;99.90
13409;DHT22;6775;49.574;11.170;2023-03-23T14:23:00;16.40;99.90
13409;DHT22;6775;49.574;11.170;2023-03-23T14:25:29;16.30;99.90
13409;DHT22;6775;49.574;11.170;2023-03-23T14:27:57;16.30;99.90
13409;DHT22;6775;49.574;11.170;2023-03-23T14:30:26;16.20;99.90
13409;DHT22;6775;49.574;11.170;2023-03-23T14:33:02;16.10;99.90
13409;DHT22;6775;49.574;11.170;2023-03-23T14:35:36;16.10;99.90
13409;DHT22;6775;49.574;11.170;2023-03-23T14:38:04;16.10;99.90
13409;DHT22;6775;49.574;11.170;2023-03-23T14:40:34;16.20;99.90
13409;DHT22;6775;49.574;11.170;2023-03-23T14:43:01;16.10;99.90
13409;DHT22;6775;49.574;11.170;2023-03-23T14:45:28;16.10;99.90
13409;DHT22;6775;49.574;11.170;2023-03-23T14:47:57;16.10;99.90
13409;DHT22;6775;49.574;11.170;2023-03-23T14:50:28;16.00;99.90
13409;DHT22;6775;49.574;11.170;2023-03-23T14:53:03;15.90;99.90
13409;DHT22;6775;49.574;11.170;2023-03-23T14:55:31;15.80;99.90
13409;DHT22;6775;49.574;11.170;2023-03-23T14:58:06;15.80;99.90
13409;DHT22;6775;49.574;11.170;2023-03-23T15:00:39;15.70;99.90
13409;DHT22;6775;49.574;11.170;2023-03-23T15:03:12;15.60;99.90
13409;DHT22;6775;49.574;11.170;2023-03-23T15:05:42;15.60;99.90
13409;DHT22;6775;49.574;11.170;2023-03-23T15:08:15;15.60;99.90
13409;DHT22;6775;49.574;11.170;2023-03-23T15:10:52;15.50;99.90
13409;DHT22;6775;49.574;11.170;2023-03-23T15:13:20;15.50;99.90
13409;DHT22;6775;49.574;11.170;2023-03-23T15:15:46;15.40;99.90
13409;DHT22;6775;49.574;11.170;2023-03-23T15:18:34;15.30;99.90
13409;DHT22;6775;49.574;11.170;2023-03-23T15:21:09;15.30;99.90
13409;DHT22;6775;49.574;11.170;2023-03-23T15:23:41;15.20;99.90
13409;DHT22;6775;49.574;11.170;2023-03-23T15:26:19;15.20;99.90
13409;DHT22;6775;49.574;11.170;2023-03-23T15:28:47;15.20;99.90
13409;DHT22;6775;49.574;11.170;2023-03-23T15:31:14;15.20;99.90
13409;DHT22;6775;49.574;11.170;2023-03-23T15:33:41;15.30;99.90
13409;DHT22;6775;49.574;11.170;2023-03-23T15:36:14;15.30;99.90
13409;DHT22;6775;49.574;11.170;2023-03-23T15:38:45;15.40;99.90
13409;DHT22;6775;49.574;11.170;2023-03-23T15:41:22;15.40;99.90
13409;DHT22;6775;49.574;11.170;2023-03-23T15:43:50;15.40;99.90
13409;DHT22;6775;49.574;11.170;2023-03-23T15:46:22;15.40;99.90
13409;DHT22;6775;49.574;11.170;2023-03-23T15:48:52;15.40;99.90
13409;DHT22;6775;49.574;11.170;2023-03-23T15:51:23;15.40;99.90
13409;DHT22;6775;49.574;11.170;2023-03-23T15:53:52;15.40;99.90
13409;DHT22;6775;49.574;11.170;2023-03-23T15:56:20;15.40;99.90
13409;DHT22;6775;49.574;11.170;2023-03-23T15:58:47;15.40;99.90
13409;DHT22;6775;49.574;11.170;2023-03-23T16:01:21;15.40;99.90
13409;DHT22;6775;49.574;11.170;2023-03-23T16:03:53;15.40;99.90
13409;DHT22;6775;49.574;11.170;2023-03-23T16:06:23;15.30;99.90